createdAt,value
2022-11-26T00:00:55.763Z,48.00
2022-11-26T00:04:03.240Z,46.00
2022-11-26T00:07:06.756Z,47.60
2022-11-26T00:10:20.068Z,48.00
2022-11-26T00:13:26.079Z,47.00
2022-11-26T00:16:31.401Z,47.00
2022-11-26T00:19:36.058Z,45.20
2022-11-26T00:22:42.037Z,44.40
2022-11-26T00:25:48.043Z,46.00
2022-11-26T00:28:54.327Z,47.00
2022-11-26T00:31:58.277Z,46.60
2022-11-26T00:35:03.233Z,47.00
2022-11-26T00:38:06.553Z,46.00
2022-11-26T00:41:18.136Z,44.00
2022-11-26T00:44:23.569Z,48.00
2022-11-26T00:47:26.836Z,45.60
2022-11-26T00:50:38.346Z,48.00
2022-11-26T00:53:41.804Z,43.25
2022-11-26T00:56:45.325Z,42.40
2022-11-26T00:59:48.817Z,44.00
2022-11-26T01:02:53.032Z,44.00
2022-11-26T01:06:00.162Z,47.60
2022-11-26T01:09:05.618Z,44.60
2022-11-26T01:12:14.832Z,46.20
2022-11-26T01:15:20.149Z,48.00
2022-11-26T01:18:24.772Z,44.00
2022-11-26T01:21:31.378Z,44.00
2022-11-26T01:24:34.732Z,44.20
2022-11-26T01:27:37.979Z,44.80
2022-11-26T01:30:42.250Z,46.00
2022-11-26T01:33:45.706Z,41.60
2022-11-26T01:36:50.342Z,44.00
2022-11-26T01:39:53.597Z,41.75
2022-11-26T01:43:01.561Z,40.75
2022-11-26T01:46:04.793Z,41.00
2022-11-26T01:49:19.867Z,38.00
2022-11-26T01:52:26.997Z,38.20
2022-11-26T01:55:37.255Z,38.00
2022-11-26T01:58:44.381Z,36.40
2022-11-26T02:01:48.991Z,39.00
2022-11-26T02:04:59.579Z,36.00
2022-11-26T02:08:04.662Z,38.60
2022-11-26T02:11:16.514Z,38.80
2022-11-26T02:14:23.974Z,41.20
2022-11-26T02:17:37.959Z,38.60
2022-11-26T02:20:53.817Z,37.40
2022-11-26T02:24:36.531Z,40.00
2022-11-26T02:28:21.941Z,39.75
2022-11-26T02:31:35.936Z,38.00
2022-11-26T02:34:44.997Z,39.60
2022-11-26T02:37:52.834Z,40.60
2022-11-26T02:40:56.140Z,40.00
2022-11-26T02:43:59.456Z,38.40
2022-11-26T02:47:10.447Z,38.00
2022-11-26T02:50:20.162Z,37.80
2022-11-26T02:53:27.073Z,41.00
2022-11-26T02:56:31.533Z,39.80
2022-11-26T02:59:35.755Z,39.00
2022-11-26T03:02:46.361Z,39.80
2022-11-26T03:05:51.533Z,44.00
2022-11-26T03:08:56.915Z,41.00
2022-11-26T03:12:00.580Z,40.80
2022-11-26T03:15:04.074Z,44.00
2022-11-26T03:18:09.112Z,44.60
2022-11-26T03:21:13.142Z,41.80
2022-11-26T03:24:16.331Z,43.20
2022-11-26T03:27:19.506Z,41.20
2022-11-26T03:30:22.789Z,44.40
2022-11-26T03:33:27.525Z,43.00
2022-11-26T03:36:30.860Z,41.80
2022-11-26T03:39:34.069Z,40.00
2022-11-26T03:42:38.013Z,39.00
2022-11-26T03:45:41.354Z,43.00
2022-11-26T03:48:46.024Z,39.00
2022-11-26T03:51:49.503Z,39.00
2022-11-26T03:54:52.749Z,39.40
2022-11-26T03:57:56.053Z,36.00
2022-11-26T04:00:59.704Z,38.40
2022-11-26T04:04:05.488Z,41.00
2022-11-26T04:07:08.817Z,39.75
2022-11-26T04:10:12.361Z,40.00
2022-11-26T04:13:15.570Z,40.00
2022-11-26T04:16:18.865Z,43.40
2022-11-26T04:19:23.499Z,40.00
2022-11-26T04:22:26.691Z,41.00
2022-11-26T04:25:30.212Z,42.20
2022-11-26T04:28:33.686Z,45.60
2022-11-26T04:31:37.281Z,44.00
2022-11-26T04:34:42.091Z,45.00
2022-11-26T04:37:45.604Z,44.60
2022-11-26T04:40:49.383Z,47.25
2022-11-26T04:43:52.579Z,42.40
2022-11-26T04:46:55.897Z,44.00
2022-11-26T04:50:00.713Z,40.80
2022-11-26T04:53:04.836Z,38.20
2022-11-26T04:56:08.598Z,36.60
2022-11-26T04:59:11.771Z,36.00
2022-11-26T05:02:15.089Z,35.00
2022-11-26T05:05:19.978Z,34.80
2022-11-26T05:08:23.221Z,36.60
2022-11-26T05:11:26.811Z,29.60
2022-11-26T05:14:30.019Z,33.00
2022-11-26T05:17:33.594Z,30.40
2022-11-26T05:20:38.270Z,30.60
2022-11-26T05:23:41.538Z,32.00
2022-11-26T05:26:44.871Z,33.50
2022-11-26T05:29:48.244Z,31.40
2022-11-26T05:32:51.624Z,30.60
2022-11-26T05:35:56.314Z,35.00
2022-11-26T05:38:59.556Z,35.60
2022-11-26T05:42:08.809Z,36.50
2022-11-26T05:45:12.837Z,40.00
2022-11-26T05:48:16.225Z,42.00
2022-11-26T05:51:20.873Z,44.60
2022-11-26T05:54:24.285Z,46.00
2022-11-26T05:57:27.516Z,46.40
2022-11-26T06:00:31.192Z,46.00
2022-11-26T06:03:34.497Z,46.20
2022-11-26T06:06:39.148Z,48.00
2022-11-26T06:09:42.390Z,46.00
2022-11-26T06:12:46.016Z,47.00
2022-11-26T06:15:49.299Z,46.00
2022-11-26T06:18:52.799Z,44.00
2022-11-26T06:21:57.455Z,40.00
2022-11-26T06:25:00.643Z,42.20
2022-11-26T06:28:03.895Z,40.00
2022-11-26T06:31:09.326Z,40.60
2022-11-26T06:34:12.901Z,36.00
2022-11-26T06:37:17.570Z,35.00
2022-11-26T06:40:22.057Z,31.00
2022-11-26T06:43:25.566Z,32.40
2022-11-26T06:46:29.456Z,29.40
2022-11-26T06:49:33.018Z,30.67
2022-11-26T06:52:37.839Z,35.00
2022-11-26T06:55:41.431Z,30.00
2022-11-26T06:58:46.655Z,29.40
2022-11-26T07:01:50.029Z,27.25
2022-11-26T07:04:53.354Z,21.50
2022-11-26T07:07:57.972Z,24.00
2022-11-26T07:11:03.513Z,23.00
2022-11-26T07:14:07.371Z,21.40
2022-11-26T07:17:10.657Z,21.00
2022-11-26T07:20:15.280Z,19.00
2022-11-26T07:23:19.878Z,21.00
2022-11-26T07:26:24.133Z,23.00
2022-11-26T07:29:27.462Z,22.00
2022-11-26T07:32:31.199Z,22.20
2022-11-26T07:35:39.346Z,23.50
2022-11-26T07:38:43.976Z,21.40
2022-11-26T07:41:47.324Z,23.20
2022-11-26T07:44:50.898Z,25.00
2022-11-26T07:47:54.577Z,27.00
2022-11-26T07:50:57.918Z,30.40
2022-11-26T07:54:06.496Z,32.60
2022-11-26T07:57:09.734Z,33.00
2022-11-26T08:00:13.873Z,30.25
2022-11-26T08:03:17.287Z,30.00
2022-11-26T08:06:22.398Z,30.00
2022-11-26T08:09:27.770Z,33.40
2022-11-26T08:12:31.383Z,32.00
2022-11-26T08:15:35.617Z,30.00
2022-11-26T08:18:38.963Z,36.00
2022-11-26T08:21:42.940Z,35.40
2022-11-26T08:24:47.662Z,38.00
2022-11-26T08:27:51.090Z,37.00
2022-11-26T08:31:02.777Z,40.00
2022-11-26T08:34:05.985Z,40.50
2022-11-26T08:37:09.187Z,36.60
2022-11-26T08:40:14.742Z,39.00
2022-11-26T08:43:18.232Z,39.00
2022-11-26T08:46:22.856Z,41.40
2022-11-26T08:49:26.195Z,36.75
2022-11-26T08:52:29.653Z,40.00
2022-11-26T08:55:58.689Z,36.20
2022-11-26T08:58:57.577Z,40.00
2022-11-26T09:02:00.809Z,41.00
2022-11-26T09:05:04.076Z,42.00
2022-11-26T09:08:07.269Z,42.00
2022-11-26T09:11:11.956Z,41.50
2022-11-26T09:14:17.136Z,41.20
2022-11-26T09:17:20.338Z,44.00
2022-11-26T09:20:24.089Z,38.60
2022-11-26T09:23:27.363Z,43.60
2022-11-26T09:26:33.728Z,43.25
2022-11-26T09:29:37.723Z,44.00
2022-11-26T09:32:40.956Z,43.00
2022-11-26T09:35:44.212Z,42.40
2022-11-26T09:38:47.473Z,40.00
2022-11-26T09:42:01.053Z,45.20
2022-11-26T09:45:12.962Z,39.20
2022-11-26T09:48:21.183Z,44.60
2022-11-26T09:51:24.475Z,44.50
2022-11-26T09:54:30.672Z,43.00
2022-11-26T09:57:42.897Z,46.00
2022-11-26T10:00:48.814Z,47.00
2022-11-26T10:03:52.805Z,46.00
2022-11-26T10:07:07.199Z,46.00
2022-11-26T10:10:19.674Z,46.00
2022-11-26T10:13:33.155Z,47.60
2022-11-26T10:16:42.867Z,48.00
2022-11-26T10:20:01.590Z,47.00
2022-11-26T10:23:12.746Z,47.00
2022-11-26T10:26:18.915Z,48.00
2022-11-26T10:29:29.160Z,44.25
2022-11-26T10:32:38.426Z,45.00
2022-11-26T10:35:44.084Z,48.40
2022-11-26T10:38:47.389Z,48.00
2022-11-26T10:41:50.571Z,50.00
2022-11-26T10:44:55.383Z,48.00
2022-11-26T10:48:16.899Z,45.80
2022-11-26T10:51:30.365Z,47.40
2022-11-26T10:54:36.854Z,46.00
2022-11-26T10:57:48.448Z,45.00
2022-11-26T11:01:00.315Z,44.80
2022-11-26T11:04:10.569Z,48.00
2022-11-26T11:07:31.387Z,46.60
2022-11-26T11:10:35.683Z,44.00
2022-11-26T11:13:43.894Z,46.00
2022-11-26T11:16:49.127Z,41.50
2022-11-26T11:19:52.698Z,42.50
2022-11-26T11:23:08.868Z,42.00
2022-11-26T11:26:18.634Z,44.40
2022-11-26T11:29:32.935Z,44.00
2022-11-26T11:32:39.961Z,46.00
2022-11-26T11:35:43.328Z,44.00
2022-11-26T11:38:49.525Z,45.00
2022-11-26T11:41:52.870Z,41.40
2022-11-26T11:44:59.240Z,46.00
2022-11-26T11:48:17.447Z,45.00
2022-11-26T11:51:31.493Z,46.00
2022-11-26T11:54:47.799Z,46.00
2022-11-26T11:58:07.686Z,44.00
2022-11-26T12:01:24.436Z,44.80
2022-11-26T12:04:49.061Z,44.60
2022-11-26T12:08:00.185Z,45.20
2022-11-26T12:11:23.268Z,45.40
2022-11-26T12:14:31.814Z,43.40
2022-11-26T12:17:39.954Z,44.00
2022-11-26T12:20:49.692Z,45.60
2022-11-26T12:23:59.224Z,44.00
2022-11-26T12:27:07.714Z,42.60
2022-11-26T12:30:16.422Z,44.60
2022-11-26T12:33:24.789Z,43.60
2022-11-26T12:36:36.334Z,44.00
2022-11-26T12:39:51.865Z,42.80
2022-11-26T12:43:02.536Z,42.00
2022-11-26T12:46:10.785Z,43.00
2022-11-26T12:49:23.999Z,42.00
2022-11-26T12:52:39.992Z,40.80
2022-11-26T12:55:48.802Z,42.20
2022-11-26T12:59:03.110Z,39.40
2022-11-26T13:02:21.228Z,39.60
2022-11-26T13:05:35.555Z,42.00
2022-11-26T13:08:51.647Z,37.60
2022-11-26T13:12:05.983Z,37.75
2022-11-26T13:15:19.677Z,36.40
2022-11-26T13:18:31.971Z,36.80
2022-11-26T13:21:53.906Z,35.40
2022-11-26T13:25:18.845Z,33.00
2022-11-26T13:28:39.599Z,33.50
2022-11-26T13:32:05.194Z,35.00
2022-11-26T13:35:25.364Z,36.00
2022-11-26T13:38:42.140Z,35.75
2022-11-26T13:42:10.183Z,39.00
2022-11-26T13:45:34.618Z,33.50
2022-11-26T13:48:46.759Z,30.40
2022-11-26T13:51:55.602Z,34.40
2022-11-26T13:55:03.920Z,34.00
2022-11-26T13:58:19.251Z,30.00
2022-11-26T14:01:37.125Z,35.20
2022-11-26T14:04:53.938Z,32.00
2022-11-26T14:08:38.123Z,31.20
2022-11-26T14:11:57.031Z,36.60
2022-11-26T14:15:01.742Z,31.60
2022-11-26T14:18:05.267Z,33.25
2022-11-26T14:21:14.756Z,33.00
2022-11-26T14:24:55.226Z,35.80
2022-11-26T14:27:59.234Z,34.60
2022-11-26T14:31:15.545Z,31.40
2022-11-26T14:34:25.794Z,30.80
2022-11-26T14:37:31.488Z,29.60
2022-11-26T14:40:37.550Z,26.75
2022-11-26T14:43:40.792Z,34.00
2022-11-26T14:46:47.237Z,34.00
2022-11-26T14:49:54.393Z,36.40
2022-11-26T14:53:02.356Z,33.00
2022-11-26T14:56:07.300Z,37.25
2022-11-26T14:59:16.755Z,34.00
2022-11-26T15:02:25.242Z,35.80
2022-11-26T15:05:30.969Z,36.00
2022-11-26T15:08:34.309Z,37.00
2022-11-26T15:11:40.548Z,35.00
2022-11-26T15:14:47.784Z,33.20
2022-11-26T15:17:57.421Z,35.00
2022-11-26T15:21:03.347Z,37.25
2022-11-26T15:24:10.069Z,38.00
2022-11-26T15:27:29.178Z,33.75
2022-11-26T15:30:34.434Z,38.67
2022-11-26T15:33:40.320Z,36.20
2022-11-26T15:36:43.603Z,37.80
2022-11-26T15:39:46.892Z,36.33
2022-11-26T15:42:53.556Z,40.25
2022-11-26T15:46:01.233Z,35.60
2022-11-26T15:49:09.131Z,39.00
2022-11-26T15:52:14.153Z,38.00
2022-11-26T15:55:24.919Z,37.25
2022-11-26T15:58:32.279Z,35.00
2022-11-26T16:01:42.365Z,38.60
2022-11-26T16:04:49.884Z,38.00
2022-11-26T16:08:00.062Z,37.80
2022-11-26T16:11:09.983Z,39.00
2022-11-26T16:14:30.034Z,33.00
2022-11-26T16:17:34.219Z,38.20
2022-11-26T16:20:42.038Z,36.00
2022-11-26T16:23:52.276Z,42.00
2022-11-26T16:26:57.925Z,40.00
2022-11-26T16:30:03.375Z,42.00
2022-11-26T16:33:07.657Z,39.00
2022-11-26T16:36:23.047Z,40.00
2022-11-26T16:39:30.032Z,35.80
2022-11-26T16:42:33.981Z,41.60
2022-11-26T16:45:37.484Z,41.60
2022-11-26T16:48:42.595Z,42.00
2022-11-26T16:51:47.273Z,39.50
2022-11-26T16:54:50.826Z,44.00
2022-11-26T16:57:56.674Z,41.00
2022-11-26T17:01:00.940Z,41.00
2022-11-26T17:04:04.505Z,41.40
2022-11-26T17:07:10.177Z,43.25
2022-11-26T17:10:16.859Z,40.00
2022-11-26T17:13:21.200Z,42.50
2022-11-26T17:16:26.350Z,43.00
2022-11-26T17:19:29.985Z,42.00
2022-11-26T17:22:34.601Z,42.00
2022-11-26T17:25:37.826Z,39.20
2022-11-26T17:28:41.119Z,40.80
2022-11-26T17:31:44.404Z,39.00
2022-11-26T17:34:48.015Z,42.60
2022-11-26T17:37:52.617Z,39.60
2022-11-26T17:40:55.834Z,41.40
2022-11-26T17:43:59.636Z,43.60
2022-11-26T17:47:16.795Z,41.60
2022-11-26T17:50:23.032Z,40.50
2022-11-26T17:53:27.670Z,40.20
2022-11-26T17:56:31.415Z,38.00
2022-11-26T17:59:36.709Z,37.00
2022-11-26T18:02:40.239Z,38.00
2022-11-26T18:05:43.528Z,37.00
2022-11-26T18:08:48.124Z,35.40
2022-11-26T18:11:53.570Z,31.60
2022-11-26T18:14:58.601Z,32.25
2022-11-26T18:18:02.196Z,32.00
2022-11-26T18:21:06.036Z,34.00
2022-11-26T18:24:12.498Z,33.60
2022-11-26T18:27:15.692Z,30.00
2022-11-26T18:30:19.967Z,32.50
2022-11-26T18:33:23.256Z,31.75
2022-11-26T18:36:26.949Z,31.00
2022-11-26T18:39:31.781Z,30.00
2022-11-26T18:42:37.445Z,29.20
2022-11-26T18:45:43.130Z,30.40
2022-11-26T18:48:48.576Z,29.40
2022-11-26T18:51:51.765Z,28.20
2022-11-26T18:54:56.402Z,28.75
2022-11-26T18:58:02.879Z,27.40
2022-11-26T19:01:14.286Z,24.00
2022-11-26T19:04:17.625Z,25.50
2022-11-26T19:07:20.952Z,30.00
2022-11-26T19:10:26.394Z,30.00
2022-11-26T19:13:29.714Z,30.00
2022-11-26T19:16:33.152Z,29.75
2022-11-26T19:19:36.540Z,27.00
2022-11-26T19:22:40.452Z,27.80
2022-11-26T19:25:46.108Z,25.00
2022-11-26T19:28:50.140Z,28.40
2022-11-26T19:31:53.900Z,26.00
2022-11-26T19:35:01.274Z,23.00
2022-11-26T19:38:07.453Z,26.75
2022-11-26T19:41:12.866Z,24.00
2022-11-26T19:44:16.110Z,23.80
2022-11-26T19:47:19.610Z,31.00
2022-11-26T19:50:22.874Z,29.40
2022-11-26T19:53:26.500Z,31.75
2022-11-26T19:56:32.658Z,28.40
2022-11-26T19:59:35.961Z,30.00
2022-11-26T20:02:39.220Z,29.00
2022-11-26T20:05:42.739Z,27.40
2022-11-26T20:08:46.884Z,32.00
2022-11-26T20:11:51.860Z,30.40
2022-11-26T20:14:55.411Z,28.40
2022-11-26T20:17:58.864Z,29.25
2022-11-26T20:21:04.089Z,31.40
2022-11-26T20:24:10.626Z,23.50
2022-11-26T20:27:15.317Z,33.00
2022-11-26T20:30:20.373Z,36.00
2022-11-26T20:33:23.658Z,35.75
2022-11-26T20:36:27.184Z,31.00
2022-11-26T20:39:30.454Z,35.00
2022-11-26T20:42:35.567Z,36.20
2022-11-26T20:45:39.205Z,33.75
2022-11-26T20:48:44.079Z,36.20
2022-11-26T20:51:47.307Z,36.00
2022-11-26T20:54:53.687Z,36.80
2022-11-26T20:57:58.680Z,39.00
2022-11-26T21:01:02.280Z,36.00
2022-11-26T21:04:06.979Z,36.60
2022-11-26T21:07:10.715Z,38.40
2022-11-26T21:10:15.882Z,38.50
2022-11-26T21:13:22.731Z,39.00
2022-11-26T21:16:26.141Z,37.80
2022-11-26T21:19:29.759Z,37.20
2022-11-26T21:22:33.031Z,37.60
2022-11-26T21:25:38.153Z,36.00
2022-11-26T21:28:42.797Z,33.00
2022-11-26T21:31:46.018Z,36.00
2022-11-26T21:34:49.616Z,41.00
2022-11-26T21:37:52.803Z,36.33
2022-11-26T21:40:56.062Z,38.33
2022-11-26T21:44:04.248Z,39.67
2022-11-26T21:47:07.926Z,40.25
2022-11-26T21:50:11.773Z,38.00
2022-11-26T21:53:15.227Z,36.00
2022-11-26T21:56:20.523Z,39.25
2022-11-26T21:59:25.792Z,39.40
2022-11-26T22:02:29.225Z,37.25
2022-11-26T22:05:32.399Z,39.20
2022-11-26T22:08:36.241Z,41.00
2022-11-26T22:11:41.462Z,40.00
2022-11-26T22:14:46.464Z,36.00
2022-11-26T22:17:49.799Z,41.00
2022-11-26T22:20:53.608Z,36.00
2022-11-26T22:23:57.021Z,39.00
2022-11-26T22:27:00.499Z,33.00
2022-11-26T22:30:05.851Z,33.60
2022-11-26T22:33:09.663Z,33.00
2022-11-26T22:36:13.297Z,32.80
2022-11-26T22:39:18.160Z,35.80
2022-11-26T22:42:21.892Z,31.00
2022-11-26T22:45:27.188Z,26.20
2022-11-26T22:48:30.454Z,34.25
2022-11-26T22:51:36.020Z,29.75
2022-11-26T22:54:39.328Z,31.60
2022-11-26T22:57:42.816Z,32.50
2022-11-26T23:00:49.976Z,32.00
2022-11-26T23:03:54.340Z,26.50
2022-11-26T23:06:57.665Z,27.20
2022-11-26T23:10:00.894Z,29.60
2022-11-26T23:13:05.126Z,30.00
2022-11-26T23:16:10.668Z,26.50
2022-11-26T23:19:15.955Z,26.40
2022-11-26T23:22:19.326Z,26.00
2022-11-26T23:25:22.625Z,21.60
2022-11-26T23:28:25.848Z,27.00
2022-11-26T23:31:31.962Z,24.00
2022-11-26T23:34:35.314Z,24.00
2022-11-26T23:37:40.095Z,21.75
2022-11-26T23:40:43.371Z,22.60
2022-11-26T23:43:47.008Z,28.00
2022-11-26T23:46:51.675Z,25.00
2022-11-26T23:49:58.403Z,28.00
2022-11-26T23:53:04.046Z,26.60
2022-11-26T23:56:10.173Z,27.20
2022-11-26T23:59:14.238Z,29.75
